Time;durP1;ratioP1;P1;durP2;ratioP2;P2;SDS_P1;SDS_P2;PMS_P1;PMS_P2;Temp;Humidity;BMP_temperature;BMP_pressure;BME280_temperature;BME280_humidity;BME280_pressure;Samples;Min_cycle;Max_cycle;Signal;HPM_P1;HPM_P2
2023/12/01 00:02:17;;;;;;;55.90;2.53;;;;;;;;;;5050698;28;20540;-70
2023/12/01 00:04:44;;;;;;;55.77;2.97;;;;;;;;;;5050940;28;20442;-70
2023/12/01 00:07:11;;;;;;;56.20;3.03;;;;;;;;;;5050796;28;20497;-70
2023/12/01 00:09:40;;;;;;;56.70;3.03;;;;;;;;;;5050759;28;20467;-70
2023/12/01 00:12:07;;;;;;;55.50;2.55;;;;;;;;;;5050708;28;20322;-70
2023/12/01 00:14:34;;;;;;;57.22;3.95;;;;;;;;;;5050527;28;20224;-70
2023/12/01 00:17:01;;;;;;;56.00;2.60;;;;;;;;;;5050589;28;20651;-70
2023/12/01 00:19:29;;;;;;;55.78;3.03;;;;;;;;;;5050616;28;20203;-70
2023/12/01 00:21:56;;;;;;;55.58;2.45;;;;;;;;;;5050560;28;20228;-70
2023/12/01 00:24:23;;;;;;;61.57;3.33;;;;;;;;;;5050668;28;20239;-70
2023/12/01 00:26:52;;;;;;;56.00;3.03;;;;;;;;;;5050576;28;20546;-70
2023/12/01 00:29:19;;;;;;;55.87;2.60;;;;;;;;;;5050412;28;20215;-70
2023/12/01 00:31:46;;;;;;;55.37;2.30;;;;;;;;;;5050240;28;20468;-70
2023/12/01 00:34:13;;;;;;;56.57;4.00;;;;;;;;;;5050475;28;20929;-70
2023/12/01 00:36:40;;;;;;;55.60;2.30;;;;;;;;;;5050724;28;20471;-70
2023/12/01 00:39:07;;;;;;;55.67;2.40;;;;;;;;;;5050796;28;20446;-70
2023/12/01 00:41:34;;;;;;;55.95;2.70;;;;;;;;;;5050284;28;20238;-70
2023/12/01 00:44:03;;;;;;;55.70;2.60;;;;;;;;;;5050419;28;20297;-70
2023/12/01 00:46:30;;;;;;;55.83;2.65;;;;;;;;;;5050250;28;20200;-70
2023/12/01 00:48:57;;;;;;;56.03;3.20;;;;;;;;;;5050479;28;20211;-70
2023/12/01 00:51:24;;;;;;;56.17;2.92;;;;;;;;;;5050269;28;20462;-70
2023/12/01 00:53:51;;;;;;;55.87;2.57;;;;;;;;;;5050282;28;20218;-70
2023/12/01 00:56:19;;;;;;;55.80;3.10;;;;;;;;;;5050126;28;21028;-70
2023/12/01 00:58:46;;;;;;;56.00;2.80;;;;;;;;;;5052524;28;20630;-70
2023/12/01 01:01:15;;;;;;;56.20;3.28;;;;;;;;;;5053999;28;20203;-70
2023/12/01 01:03:42;;;;;;;55.67;2.43;;;;;;;;;;5054006;28;20217;-70
2023/12/01 01:06:10;;;;;;;56.00;2.50;;;;;;;;;;5054081;28;20445;-70
2023/12/01 01:08:37;;;;;;;55.57;2.93;;;;;;;;;;5053772;28;20227;-71
2023/12/01 01:11:04;;;;;;;56.90;3.40;;;;;;;;;;5053530;28;20461;-71
2023/12/01 01:13:32;;;;;;;55.58;2.40;;;;;;;;;;5053550;28;20711;-71
2023/12/01 01:15:59;;;;;;;55.50;2.43;;;;;;;;;;5053631;28;20645;-70
2023/12/01 01:18:27;;;;;;;56.08;2.95;;;;;;;;;;5053784;28;20790;-71
2023/12/01 01:20:54;;;;;;;55.47;2.90;;;;;;;;;;5053600;28;20211;-70
2023/12/01 01:23:22;;;;;;;56.87;3.37;;;;;;;;;;5053532;28;20468;-70
2023/12/01 01:25:49;;;;;;;59.03;5.07;;;;;;;;;;5053373;28;20528;-71
2023/12/01 01:28:16;;;;;;;57.50;3.25;;;;;;;;;;5053291;28;20234;-70
2023/12/01 01:30:44;;;;;;;55.83;2.90;;;;;;;;;;5053560;28;20565;-70
2023/12/01 01:33:11;;;;;;;58.55;3.58;;;;;;;;;;5053220;28;21008;-70
2023/12/01 01:35:39;;;;;;;57.22;3.50;;;;;;;;;;5053165;28;20208;-70
2023/12/01 01:38:07;;;;;;;58.07;3.33;;;;;;;;;;5053009;28;20578;-70
2023/12/01 01:40:34;;;;;;;55.85;3.03;;;;;;;;;;5053005;28;20453;-70
2023/12/01 01:43:01;;;;;;;56.20;2.90;;;;;;;;;;5052988;28;20237;-70
2023/12/01 01:45:28;;;;;;;57.13;3.25;;;;;;;;;;5053239;28;20474;-71
2023/12/01 01:47:55;;;;;;;55.75;2.60;;;;;;;;;;5053151;28;20235;-71
2023/12/01 01:50:22;;;;;;;55.83;2.97;;;;;;;;;;5052957;28;20210;-70
2023/12/01 01:52:51;;;;;;;56.42;3.38;;;;;;;;;;5052908;28;20236;-71
2023/12/01 01:55:18;;;;;;;56.20;3.67;;;;;;;;;;5052724;28;20211;-70
2023/12/01 01:57:46;;;;;;;56.45;3.45;;;;;;;;;;5053145;28;20441;-70
2023/12/01 02:00:16;;;;;;;55.80;3.35;;;;;;;;;;5052639;28;20210;-70
2023/12/01 02:02:43;;;;;;;55.80;2.67;;;;;;;;;;5053248;28;20642;-70
2023/12/01 02:05:13;;;;;;;55.53;2.50;;;;;;;;;;5052522;28;20679;-70
2023/12/01 02:07:41;;;;;;;55.80;3.20;;;;;;;;;;5053058;28;21088;-70
2023/12/01 02:10:15;;;;;;;56.17;2.90;;;;;;;;;;5051120;28;20965;-70
2023/12/01 02:12:42;;;;;;;55.50;2.80;;;;;;;;;;5052691;28;20254;-70
2023/12/01 02:15:10;;;;;;;55.80;2.78;;;;;;;;;;5052304;28;20934;-70
2023/12/01 02:17:38;;;;;;;55.85;2.88;;;;;;;;;;5052663;28;20207;-70
2023/12/01 02:20:14;;;;;;;56.57;2.90;;;;;;;;;;5052738;28;20218;-70
2023/12/01 02:22:43;;;;;;;56.20;3.30;;;;;;;;;;5052346;28;20981;-71
2023/12/01 02:25:10;;;;;;;55.60;2.60;;;;;;;;;;5052307;28;20212;-70
2023/12/01 02:27:37;;;;;;;56.33;4.18;;;;;;;;;;5052335;28;20485;-71
2023/12/01 02:30:04;;;;;;;55.67;2.90;;;;;;;;;;5052152;28;20686;-70
2023/12/01 02:32:31;;;;;;;56.92;2.92;;;;;;;;;;5052083;28;20496;-70
2023/12/01 02:34:58;;;;;;;56.03;2.60;;;;;;;;;;5051588;28;20217;-70
2023/12/01 02:37:25;;;;;;;57.92;4.72;;;;;;;;;;5052106;28;20203;-70
2023/12/01 02:39:54;;;;;;;56.00;3.40;;;;;;;;;;5052112;28;20212;-70
2023/12/01 02:42:21;;;;;;;56.17;3.20;;;;;;;;;;5051735;28;20237;-71
2023/12/01 02:44:48;;;;;;;55.78;2.85;;;;;;;;;;5052020;28;20583;-70
2023/12/01 02:47:15;;;;;;;55.90;2.70;;;;;;;;;;5051938;28;20227;-71
2023/12/01 02:49:42;;;;;;;60.22;5.53;;;;;;;;;;5051895;28;20203;-70
2023/12/01 02:52:09;;;;;;;55.80;2.67;;;;;;;;;;5051734;28;20223;-70
2023/12/01 02:54:36;;;;;;;57.00;3.25;;;;;;;;;;5051743;28;20202;-70
2023/12/01 02:57:05;;;;;;;56.30;3.20;;;;;;;;;;5051606;28;20203;-70
2023/12/01 02:59:34;;;;;;;55.95;3.13;;;;;;;;;;5051935;28;20207;-70
2023/12/01 03:02:02;;;;;;;55.47;2.57;;;;;;;;;;5051619;28;20238;-70
2023/12/01 03:04:29;;;;;;;56.55;3.58;;;;;;;;;;5051690;28;20457;-70
2023/12/01 03:06:56;;;;;;;56.80;3.92;;;;;;;;;;5051459;28;20319;-70
2023/12/01 03:09:23;;;;;;;55.90;3.17;;;;;;;;;;5051471;28;20230;-70
2023/12/01 03:11:50;;;;;;;57.80;4.10;;;;;;;;;;5051292;28;20226;-70
2023/12/01 03:14:19;;;;;;;55.70;2.53;;;;;;;;;;5051516;28;20428;-70
2023/12/01 03:16:46;;;;;;;56.75;3.28;;;;;;;;;;5051642;28;20215;-70
2023/12/01 03:19:14;;;;;;;55.78;2.50;;;;;;;;;;5051378;28;20210;-71
2023/12/01 03:21:41;;;;;;;56.42;2.97;;;;;;;;;;5050756;28;20227;-70
2023/12/01 03:24:09;;;;;;;56.00;3.35;;;;;;;;;;5051072;28;20215;-71
2023/12/01 03:26:36;;;;;;;55.67;2.75;;;;;;;;;;5051376;28;20210;-70
2023/12/01 03:29:03;;;;;;;56.50;3.70;;;;;;;;;;5051355;28;20229;-71
2023/12/01 03:31:31;;;;;;;55.58;2.63;;;;;;;;;;5051102;28;20203;-70
2023/12/01 03:33:59;;;;;;;55.80;3.10;;;;;;;;;;5051080;28;20301;-70
2023/12/01 03:36:27;;;;;;;56.10;3.28;;;;;;;;;;5050903;28;20450;-70
2023/12/01 03:38:54;;;;;;;56.60;3.88;;;;;;;;;;5051283;28;20211;-70
2023/12/01 03:41:21;;;;;;;56.35;3.47;;;;;;;;;;5051107;28;20204;-70
2023/12/01 03:43:48;;;;;;;55.95;3.15;;;;;;;;;;5051016;28;20214;-70
2023/12/01 03:46:15;;;;;;;55.70;2.85;;;;;;;;;;5050978;28;20207;-71
2023/12/01 03:48:43;;;;;;;56.13;2.60;;;;;;;;;;5050917;28;20230;-70
2023/12/01 03:51:11;;;;;;;56.40;3.85;;;;;;;;;;5050576;28;20218;-71
2023/12/01 03:53:38;;;;;;;55.67;2.60;;;;;;;;;;5050773;28;20285;-70
2023/12/01 03:56:06;;;;;;;60.05;5.10;;;;;;;;;;5050943;28;20210;-72
2023/12/01 03:58:33;;;;;;;58.85;4.13;;;;;;;;;;5050943;28;20204;-71
2023/12/01 04:01:00;;;;;;;55.88;2.80;;;;;;;;;;5050715;28;20211;-70
2023/12/01 04:03:27;;;;;;;55.80;2.72;;;;;;;;;;5050772;28;20596;-71
2023/12/01 04:06:01;;;;;;;58.00;3.78;;;;;;;;;;5050559;28;20214;-70
2023/12/01 04:08:28;;;;;;;55.58;2.55;;;;;;;;;;5050813;28;20227;-71
2023/12/01 04:10:55;;;;;;;55.80;2.55;;;;;;;;;;5050643;28;20215;-71
2023/12/01 04:13:22;;;;;;;56.47;4.00;;;;;;;;;;5050629;28;20227;-70
2023/12/01 04:15:50;;;;;;;55.97;2.65;;;;;;;;;;5050556;28;20218;-71
2023/12/01 04:18:17;;;;;;;55.70;2.88;;;;;;;;;;5050442;28;20203;-71
2023/12/01 04:20:44;;;;;;;55.90;2.80;;;;;;;;;;5050509;28;20210;-70
2023/12/01 04:23:14;;;;;;;56.38;3.75;;;;;;;;;;5050440;28;20736;-71
2023/12/01 04:25:45;;;;;;;57.20;3.13;;;;;;;;;;5050608;28;20302;-70
2023/12/01 04:28:12;;;;;;;56.20;3.05;;;;;;;;;;5050390;28;20716;-71
2023/12/01 04:30:39;;;;;;;57.70;4.43;;;;;;;;;;5050396;28;20663;-72
2023/12/01 04:33:06;;;;;;;56.00;3.58;;;;;;;;;;5051981;28;20599;-70
2023/12/01 04:35:34;;;;;;;55.63;2.95;;;;;;;;;;5054263;28;20644;-71
2023/12/01 04:38:03;;;;;;;56.65;2.80;;;;;;;;;;5054345;28;20203;-71
2023/12/01 04:40:32;;;;;;;57.30;3.85;;;;;;;;;;5054242;28;20208;-70
2023/12/01 04:43:01;;;;;;;56.33;4.25;;;;;;;;;;5054356;28;20230;-71
2023/12/01 04:45:28;;;;;;;56.08;2.80;;;;;;;;;;5054031;28;20587;-70
2023/12/01 04:47:57;;;;;;;55.88;3.10;;;;;;;;;;5054393;28;20624;-72
2023/12/01 04:50:24;;;;;;;56.58;3.17;;;;;;;;;;5054230;28;20208;-70
2023/12/01 04:52:53;;;;;;;55.78;2.50;;;;;;;;;;5054175;28;20226;-71
2023/12/01 04:55:21;;;;;;;56.03;2.78;;;;;;;;;;5053960;28;20214;-70
2023/12/01 04:57:49;;;;;;;56.45;2.90;;;;;;;;;;5053911;28;20211;-71
2023/12/01 05:00:20;;;;;;;56.47;3.30;;;;;;;;;;5054132;28;20213;-70
2023/12/01 05:02:48;;;;;;;55.90;2.80;;;;;;;;;;5054124;28;20252;-70
2023/12/01 05:05:15;;;;;;;55.97;2.90;;;;;;;;;;5053806;28;20207;-70
2023/12/01 05:07:42;;;;;;;57.97;3.67;;;;;;;;;;5053953;28;20202;-70
2023/12/01 05:10:14;;;;;;;56.17;2.88;;;;;;;;;;5053510;28;20222;-70
2023/12/01 05:12:41;;;;;;;55.80;2.70;;;;;;;;;;5053757;28;20634;-70
2023/12/01 05:15:15;;;;;;;56.40;2.75;;;;;;;;;;5058668;28;20216;-71
2023/12/01 05:17:43;;;;;;;55.95;2.78;;;;;;;;;;5064978;28;20210;-72
2023/12/01 05:20:15;;;;;;;56.60;3.25;;;;;;;;;;5065461;28;20210;-70
2023/12/01 05:22:42;;;;;;;55.67;2.63;;;;;;;;;;5066129;28;20229;-72
2023/12/01 05:25:13;;;;;;;55.85;2.85;;;;;;;;;;5066832;28;20216;-71
2023/12/01 05:27:41;;;;;;;55.97;3.45;;;;;;;;;;5061130;28;20209;-71
2023/12/01 05:30:08;;;;;;;55.85;2.65;;;;;;;;;;5067415;28;20194;-71
2023/12/01 05:32:38;;;;;;;55.78;2.60;;;;;;;;;;5058418;28;20227;-71
2023/12/01 05:35:05;;;;;;;55.70;2.60;;;;;;;;;;5065928;28;20214;-71
2023/12/01 05:37:32;;;;;;;56.00;2.50;;;;;;;;;;5061494;28;20261;-71
2023/12/01 05:39:59;;;;;;;55.85;2.80;;;;;;;;;;5059598;28;20210;-70
2023/12/01 05:42:26;;;;;;;57.63;3.80;;;;;;;;;;5065270;28;20226;-71
2023/12/01 05:44:54;;;;;;;56.58;3.90;;;;;;;;;;5054846;28;20218;-71
2023/12/01 05:47:22;;;;;;;57.40;3.42;;;;;;;;;;5054508;28;20207;-71
2023/12/01 05:49:51;;;;;;;55.90;2.80;;;;;;;;;;5053918;28;20239;-71
2023/12/01 05:52:18;;;;;;;56.90;3.25;;;;;;;;;;5054702;28;20237;-71
2023/12/01 05:54:45;;;;;;;56.10;3.20;;;;;;;;;;5054297;28;20672;-71
2023/12/01 05:57:12;;;;;;;55.85;2.95;;;;;;;;;;5055232;28;20206;-70
2023/12/01 05:59:42;;;;;;;56.00;2.80;;;;;;;;;;5063304;28;20596;-71
2023/12/01 06:02:11;;;;;;;56.15;2.70;;;;;;;;;;5062803;28;20311;-72
2023/12/01 06:04:38;;;;;;;56.00;3.00;;;;;;;;;;5055026;28;20206;-71
2023/12/01 06:07:07;;;;;;;57.20;4.35;;;;;;;;;;5053044;28;20210;-72
2023/12/01 06:09:36;;;;;;;56.25;3.40;;;;;;;;;;5052638;28;20276;-71
2023/12/01 06:12:03;;;;;;;56.15;3.17;;;;;;;;;;5052684;28;20222;-72
2023/12/01 06:14:30;;;;;;;56.20;3.08;;;;;;;;;;5054063;28;20239;-72
2023/12/01 06:16:57;;;;;;;55.80;3.00;;;;;;;;;;5052975;28;20214;-73
2023/12/01 06:19:25;;;;;;;56.17;3.15;;;;;;;;;;5052822;28;20203;-72
2023/12/01 06:21:52;;;;;;;56.10;2.95;;;;;;;;;;5052954;28;20230;-71
2023/12/01 06:24:23;;;;;;;56.00;2.72;;;;;;;;;;5052611;28;20207;-73
2023/12/01 06:26:52;;;;;;;56.88;3.95;;;;;;;;;;5054266;28;20225;-73
2023/12/01 06:29:19;;;;;;;56.20;3.40;;;;;;;;;;5052783;28;20226;-73
2023/12/01 06:31:46;;;;;;;55.88;3.03;;;;;;;;;;5052643;28;20225;-71
2023/12/01 06:34:13;;;;;;;56.30;3.35;;;;;;;;;;5053776;28;20207;-74
2023/12/01 06:36:40;;;;;;;56.85;3.42;;;;;;;;;;5055321;28;20598;-72
2023/12/01 06:39:10;;;;;;;56.40;3.55;;;;;;;;;;5056012;28;20230;-72
2023/12/01 06:41:38;;;;;;;56.00;2.90;;;;;;;;;;5055768;28;20227;-71
2023/12/01 06:44:06;;;;;;;57.22;3.22;;;;;;;;;;5053980;28;20404;-72
2023/12/01 06:46:33;;;;;;;55.67;2.90;;;;;;;;;;5053029;28;20595;-71
2023/12/01 06:49:00;;;;;;;55.88;2.80;;;;;;;;;;5052790;28;20227;-71
2023/12/01 06:51:27;;;;;;;56.00;2.80;;;;;;;;;;5052993;28;20217;-72
2023/12/01 06:53:56;;;;;;;56.40;3.63;;;;;;;;;;5055209;28;20207;-72
2023/12/01 06:56:23;;;;;;;56.75;3.38;;;;;;;;;;5053955;28;20230;-72
2023/12/01 06:58:51;;;;;;;56.20;2.97;;;;;;;;;;5054553;28;20203;-72
2023/12/01 07:01:19;;;;;;;56.50;3.53;;;;;;;;;;5053454;28;20207;-72
2023/12/01 07:03:47;;;;;;;55.80;2.78;;;;;;;;;;5053744;28;20219;-73
2023/12/01 07:06:14;;;;;;;56.38;3.28;;;;;;;;;;5053129;28;20206;-75
2023/12/01 07:08:41;;;;;;;55.88;2.80;;;;;;;;;;5053429;28;20243;-72
2023/12/01 07:11:08;;;;;;;56.45;3.67;;;;;;;;;;5052182;28;20214;-72
2023/12/01 07:13:36;;;;;;;55.90;2.90;;;;;;;;;;5052025;28;20229;-71
2023/12/01 07:16:09;;;;;;;56.20;3.00;;;;;;;;;;5051838;28;20206;-71
2023/12/01 07:18:37;;;;;;;56.20;3.40;;;;;;;;;;5052135;28;20583;-74
2023/12/01 07:21:06;;;;;;;56.00;2.60;;;;;;;;;;5052268;28;20207;-71
2023/12/01 07:23:33;;;;;;;56.08;2.90;;;;;;;;;;5051817;28;20314;-71
2023/12/01 07:26:00;;;;;;;56.10;3.30;;;;;;;;;;5052051;28;20217;-72
2023/12/01 07:28:27;;;;;;;56.72;3.65;;;;;;;;;;5052711;28;20589;-72
2023/12/01 07:30:54;;;;;;;59.30;3.78;;;;;;;;;;5052361;28;20210;-72
2023/12/01 07:33:23;;;;;;;56.17;2.80;;;;;;;;;;5052633;28;20226;-72
2023/12/01 07:35:50;;;;;;;56.00;3.25;;;;;;;;;;5052740;28;20312;-72
2023/12/01 07:38:17;;;;;;;55.92;2.97;;;;;;;;;;5052662;28;20214;-73
2023/12/01 07:40:44;;;;;;;55.80;2.90;;;;;;;;;;5052093;28;20246;-72
2023/12/01 07:43:12;;;;;;;56.00;2.85;;;;;;;;;;5052509;28;20233;-72
2023/12/01 07:45:39;;;;;;;55.67;2.72;;;;;;;;;;5052104;28;20261;-75
2023/12/01 07:48:09;;;;;;;56.08;2.60;;;;;;;;;;5052824;28;20204;-72
2023/12/01 07:50:38;;;;;;;58.10;3.75;;;;;;;;;;5052481;28;20349;-72
2023/12/01 07:53:05;;;;;;;56.33;3.58;;;;;;;;;;5052802;28;20258;-72
2023/12/01 07:55:32;;;;;;;56.10;3.20;;;;;;;;;;5053000;28;20695;-74
2023/12/01 07:57:59;;;;;;;55.72;2.55;;;;;;;;;;5052089;28;20213;-73
2023/12/01 08:00:27;;;;;;;55.78;2.65;;;;;;;;;;5050746;28;20208;-72
2023/12/01 08:02:54;;;;;;;58.15;3.25;;;;;;;;;;5050806;28;20226;-72
2023/12/01 08:05:21;;;;;;;56.10;3.65;;;;;;;;;;5050578;28;20211;-72
2023/12/01 08:07:51;;;;;;;56.00;3.10;;;;;;;;;;5053447;28;20298;-72
2023/12/01 08:10:18;;;;;;;56.00;3.05;;;;;;;;;;5054664;28;20230;-72
2023/12/01 08:12:46;;;;;;;56.05;3.00;;;;;;;;;;5055246;28;20227;-75
2023/12/01 08:15:13;;;;;;;56.67;3.47;;;;;;;;;;5054739;28;20211;-72
2023/12/01 08:17:40;;;;;;;56.05;2.92;;;;;;;;;;5054641;28;20207;-72
2023/12/01 08:20:08;;;;;;;55.80;2.83;;;;;;;;;;5054565;28;20305;-73
2023/12/01 08:22:37;;;;;;;56.10;3.17;;;;;;;;;;5054806;28;20391;-72
2023/12/01 08:25:06;;;;;;;55.80;2.83;;;;;;;;;;5054895;28;20301;-72
2023/12/01 08:27:34;;;;;;;56.20;3.30;;;;;;;;;;5054566;28;20237;-74
2023/12/01 08:30:02;;;;;;;55.67;2.50;;;;;;;;;;5054442;28;20229;-73
2023/12/01 08:32:29;;;;;;;57.67;3.63;;;;;;;;;;5054333;28;20231;-73
2023/12/01 08:34:56;;;;;;;56.00;2.72;;;;;;;;;;5054374;28;20688;-73
2023/12/01 08:37:23;;;;;;;55.90;3.42;;;;;;;;;;5054497;28;20216;-73
2023/12/01 08:39:50;;;;;;;55.88;3.08;;;;;;;;;;5054442;28;20204;-73
2023/12/01 08:42:19;;;;;;;56.28;3.00;;;;;;;;;;5054330;28;20226;-73
2023/12/01 08:44:46;;;;;;;56.03;2.92;;;;;;;;;;5046171;28;20202;-75
2023/12/01 08:47:15;;;;;;;55.90;2.80;;;;;;;;;;5054259;28;20209;-74
2023/12/01 08:49:42;;;;;;;56.13;3.00;;;;;;;;;;5054015;28;20235;-73
2023/12/01 08:52:09;;;;;;;56.35;3.50;;;;;;;;;;5054442;28;20601;-73
2023/12/01 08:54:36;;;;;;;56.10;3.28;;;;;;;;;;5054099;28;20210;-75
2023/12/01 08:57:03;;;;;;;55.78;2.70;;;;;;;;;;5054271;28;20212;-71
2023/12/01 08:59:32;;;;;;;56.92;3.80;;;;;;;;;;5053910;28;20202;-70
2023/12/01 09:01:59;;;;;;;55.78;2.70;;;;;;;;;;5054191;28;20668;-73
2023/12/01 09:04:26;;;;;;;56.10;2.77;;;;;;;;;;5053940;28;20224;-73
2023/12/01 09:06:53;;;;;;;56.00;3.17;;;;;;;;;;5054164;28;20453;-73
2023/12/01 09:09:20;;;;;;;55.78;2.70;;;;;;;;;;5054489;28;20297;-76
2023/12/01 09:11:47;;;;;;;55.58;2.50;;;;;;;;;;5045665;28;20314;-70
2023/12/01 09:14:14;;;;;;;55.90;2.70;;;;;;;;;;5053542;28;20207;-70
2023/12/01 09:16:43;;;;;;;55.70;2.50;;;;;;;;;;5053835;28;20261;-72
2023/12/01 09:19:10;;;;;;;57.53;3.63;;;;;;;;;;5052943;28;20686;-72
2023/12/01 09:21:37;;;;;;;55.80;2.70;;;;;;;;;;5053588;28;20223;-73
2023/12/01 09:24:05;;;;;;;55.88;2.70;;;;;;;;;;5053627;28;20234;-73
2023/12/01 09:26:32;;;;;;;55.78;2.60;;;;;;;;;;5053459;28;20260;-72
2023/12/01 09:28:59;;;;;;;55.88;2.83;;;;;;;;;;5053730;28;20622;-73
2023/12/01 09:31:26;;;;;;;57.45;3.25;;;;;;;;;;5053385;28;20207;-70
2023/12/01 09:33:55;;;;;;;55.63;2.83;;;;;;;;;;5053276;28;20209;-71
2023/12/01 09:36:22;;;;;;;55.42;2.55;;;;;;;;;;5053301;28;20202;-74
2023/12/01 09:38:49;;;;;;;56.17;3.30;;;;;;;;;;5053366;28;20199;-71
2023/12/01 09:41:17;;;;;;;55.97;2.83;;;;;;;;;;5053232;28;20206;-72
2023/12/01 09:43:44;;;;;;;55.70;2.40;;;;;;;;;;5053214;28;20203;-73
2023/12/01 09:46:12;;;;;;;56.78;3.80;;;;;;;;;;5053130;28;20215;-74
2023/12/01 09:48:41;;;;;;;56.00;3.13;;;;;;;;;;5053261;28;20222;-74
2023/12/01 09:51:10;;;;;;;55.80;2.85;;;;;;;;;;5052933;28;20238;-72
2023/12/01 09:53:38;;;;;;;56.58;3.45;;;;;;;;;;5052753;28;20738;-74
2023/12/01 09:56:06;;;;;;;55.75;2.60;;;;;;;;;;5053260;28;20213;-73
2023/12/01 09:58:33;;;;;;;55.90;3.22;;;;;;;;;;5052992;28;20206;-73
2023/12/01 10:01:01;;;;;;;57.30;3.28;;;;;;;;;;5052931;28;20200;-72
2023/12/01 10:03:28;;;;;;;55.78;2.85;;;;;;;;;;5052804;28;20223;-73
2023/12/01 10:05:59;;;;;;;55.97;2.97;;;;;;;;;;5052764;28;20209;-75
2023/12/01 10:08:27;;;;;;;56.22;3.70;;;;;;;;;;5052775;28;20306;-72
2023/12/01 10:10:54;;;;;;;56.00;3.17;;;;;;;;;;5052890;28;20268;-71
2023/12/01 10:13:21;;;;;;;56.90;3.42;;;;;;;;;;5052611;28;20242;-70
2023/12/01 10:15:49;;;;;;;55.83;2.97;;;;;;;;;;5044366;28;20599;-71
2023/12/01 10:18:17;;;;;;;57.83;3.80;;;;;;;;;;5052585;28;20203;-72
2023/12/01 10:20:55;;;;;;;56.13;2.78;;;;;;;;;;5052371;28;20202;-73
2023/12/01 10:23:23;;;;;;;56.05;3.00;;;;;;;;;;5052640;28;20317;-71
2023/12/01 10:25:53;;;;;;;55.90;2.80;;;;;;;;;;5052785;28;20215;-72
2023/12/01 10:28:20;;;;;;;55.80;2.63;;;;;;;;;;5052479;28;20231;-71
2023/12/01 10:30:53;;;;;;;56.20;3.33;;;;;;;;;;5050894;28;20222;-72
2023/12/01 10:33:20;;;;;;;55.97;3.13;;;;;;;;;;5052183;28;20233;-71
2023/12/01 10:35:58;;;;;;;55.85;2.80;;;;;;;;;;5052254;28;20285;-71
2023/12/01 10:38:26;;;;;;;61.15;5.72;;;;;;;;;;5052324;28;20199;-72
2023/12/01 10:40:54;;;;;;;56.08;3.15;;;;;;;;;;5051938;28;20212;-71
2023/12/01 10:43:22;;;;;;;55.78;2.90;;;;;;;;;;5052044;28;20234;-71
2023/12/01 10:45:49;;;;;;;56.08;3.25;;;;;;;;;;5051726;28;20279;-72
2023/12/01 10:48:17;;;;;;;56.13;2.88;;;;;;;;;;5052198;28;20201;-71
2023/12/01 10:50:45;;;;;;;58.53;5.95;;;;;;;;;;5051673;28;20223;-72
2023/12/01 10:53:12;;;;;;;56.30;3.55;;;;;;;;;;5052191;28;20665;-71
2023/12/01 10:55:39;;;;;;;56.55;3.88;;;;;;;;;;5051534;28;20682;-71
2023/12/01 10:58:08;;;;;;;56.35;3.58;;;;;;;;;;5051788;28;20198;-73
2023/12/01 11:00:35;;;;;;;56.00;3.10;;;;;;;;;;5051487;28;20202;-71
2023/12/01 11:03:04;;;;;;;56.00;2.70;;;;;;;;;;5052065;28;20231;-72
2023/12/01 11:05:32;;;;;;;56.65;3.17;;;;;;;;;;5051487;28;20723;-71
2023/12/01 11:08:07;;;;;;;56.72;3.45;;;;;;;;;;5051735;28;20683;-71
2023/12/01 11:10:42;;;;;;;55.78;2.50;;;;;;;;;;5051375;28;20234;-70
2023/12/01 11:13:18;;;;;;;56.10;3.33;;;;;;;;;;5051683;28;20280;-71
2023/12/01 11:15:48;;;;;;;55.97;2.67;;;;;;;;;;5051572;28;20260;-70
2023/12/01 11:18:15;;;;;;;56.55;4.25;;;;;;;;;;5051349;28;20209;-70
2023/12/01 11:20:44;;;;;;;57.13;3.72;;;;;;;;;;5051253;28;20213;-71
2023/12/01 11:23:24;;;;;;;55.95;3.45;;;;;;;;;;5051566;28;20645;-70
2023/12/01 11:25:55;;;;;;;56.00;3.40;;;;;;;;;;5051285;28;20226;-72
2023/12/01 11:28:28;;;;;;;56.92;3.63;;;;;;;;;;5051616;28;20453;-70
2023/12/01 11:31:00;;;;;;;57.38;4.97;;;;;;;;;;5043132;28;20695;-70
2023/12/01 11:33:32;;;;;;;55.95;2.80;;;;;;;;;;5051103;28;20272;-71
2023/12/01 11:36:18;;;;;;;58.13;4.32;;;;;;;;;;5051506;28;20214;-70
2023/12/01 11:39:00;;;;;;;56.00;3.37;;;;;;;;;;5051151;28;20210;-70
2023/12/01 11:41:28;;;;;;;56.17;3.30;;;;;;;;;;5050405;28;21255;-69
2023/12/01 11:44:04;;;;;;;58.25;4.07;;;;;;;;;;5050874;28;20199;-69
2023/12/01 11:46:32;;;;;;;56.17;4.10;;;;;;;;;;5051214;28;20289;-70
2023/12/01 11:48:59;;;;;;;56.13;3.92;;;;;;;;;;5051470;28;20257;-70
2023/12/01 11:51:26;;;;;;;56.95;5.05;;;;;;;;;;5050871;28;20226;-70
2023/12/01 11:53:56;;;;;;;55.70;2.70;;;;;;;;;;5050963;28;20203;-69
2023/12/01 11:56:24;;;;;;;55.55;2.95;;;;;;;;;;5050777;28;20707;-70
2023/12/01 11:58:52;;;;;;;57.33;3.40;;;;;;;;;;5050929;28;20200;-69
2023/12/01 12:01:22;;;;;;;56.03;3.05;;;;;;;;;;5051076;28;20445;-70
2023/12/01 12:03:54;;;;;;;55.90;2.80;;;;;;;;;;5050865;28;20208;-70
2023/12/01 12:06:21;;;;;;;61.90;4.45;;;;;;;;;;5051118;28;20207;-69
2023/12/01 12:08:48;;;;;;;56.47;3.45;;;;;;;;;;5050661;28;20598;-70
2023/12/01 12:11:16;;;;;;;56.17;3.20;;;;;;;;;;5050526;28;20313;-70
2023/12/01 12:13:44;;;;;;;55.95;3.00;;;;;;;;;;5051046;28;20216;-70
2023/12/01 12:16:12;;;;;;;55.85;2.90;;;;;;;;;;5051260;28;20273;-70
2023/12/01 12:18:40;;;;;;;56.00;3.43;;;;;;;;;;5051027;28;20215;-70
2023/12/01 12:21:08;;;;;;;56.20;3.83;;;;;;;;;;5051092;28;20449;-70
2023/12/01 12:23:35;;;;;;;55.90;3.10;;;;;;;;;;5050928;28;20226;-70
2023/12/01 12:26:14;;;;;;;56.00;3.20;;;;;;;;;;5050833;28;20210;-69
2023/12/01 12:28:42;;;;;;;56.75;3.13;;;;;;;;;;5050794;28;20204;-70
2023/12/01 12:31:10;;;;;;;56.35;3.75;;;;;;;;;;5050834;28;20219;-70
2023/12/01 12:33:37;;;;;;;55.90;3.15;;;;;;;;;;5050633;28;20721;-70
2023/12/01 12:36:07;;;;;;;56.03;3.10;;;;;;;;;;5050692;28;20226;-71
2023/12/01 12:38:34;;;;;;;55.75;3.05;;;;;;;;;;5051017;28;20206;-70
2023/12/01 12:41:04;;;;;;;55.97;3.15;;;;;;;;;;5051200;28;20196;-70
2023/12/01 12:43:32;;;;;;;57.25;3.38;;;;;;;;;;5050744;28;20245;-71
2023/12/01 12:46:00;;;;;;;56.40;2.95;;;;;;;;;;5050494;28;20214;-70
2023/12/01 12:48:27;;;;;;;55.85;3.05;;;;;;;;;;5050723;28;20581;-70
2023/12/01 12:50:54;;;;;;;57.13;4.07;;;;;;;;;;5050391;28;20645;-70
2023/12/01 12:53:23;;;;;;;56.00;3.50;;;;;;;;;;5050627;28;20228;-70
2023/12/01 12:55:50;;;;;;;59.40;5.30;;;;;;;;;;5054250;28;20213;-69
2023/12/01 12:58:18;;;;;;;56.50;4.63;;;;;;;;;;5054408;28;20210;-70
2023/12/01 13:00:45;;;;;;;56.03;3.45;;;;;;;;;;5054066;28;20620;-70
2023/12/01 13:03:12;;;;;;;56.67;4.55;;;;;;;;;;5053793;28;20222;-70
2023/12/01 13:05:40;;;;;;;56.40;4.15;;;;;;;;;;5053774;28;20363;-71
2023/12/01 13:08:07;;;;;;;56.00;2.95;;;;;;;;;;5053924;28;20289;-69
2023/12/01 13:10:35;;;;;;;55.95;3.05;;;;;;;;;;5053947;28;20240;-70
2023/12/01 13:13:03;;;;;;;56.20;3.35;;;;;;;;;;5053856;28;20233;-70
2023/12/01 13:15:30;;;;;;;56.28;3.15;;;;;;;;;;5053684;28;20652;-71
2023/12/01 13:17:57;;;;;;;56.00;3.25;;;;;;;;;;5053563;28;20203;-70
2023/12/01 13:20:24;;;;;;;56.00;2.73;;;;;;;;;;5053938;28;20202;-70
2023/12/01 13:22:51;;;;;;;61.90;4.40;;;;;;;;;;5053490;28;20482;-70
2023/12/01 13:25:18;;;;;;;58.63;3.88;;;;;;;;;;5053758;28;20208;-70
2023/12/01 13:27:47;;;;;;;55.78;3.20;;;;;;;;;;5053557;28;20215;-70
2023/12/01 13:30:14;;;;;;;57.17;3.45;;;;;;;;;;5053374;28;20205;-71
2023/12/01 13:32:41;;;;;;;56.47;4.15;;;;;;;;;;5053543;28;20238;-70
2023/12/01 13:35:08;;;;;;;55.85;2.67;;;;;;;;;;5053554;28;20203;-69
2023/12/01 13:37:38;;;;;;;56.35;4.03;;;;;;;;;;5053406;28;20234;-71
2023/12/01 13:40:08;;;;;;;55.90;3.00;;;;;;;;;;5053492;28;20240;-70
2023/12/01 13:42:36;;;;;;;58.28;4.00;;;;;;;;;;5053300;28;20235;-70
2023/12/01 13:45:07;;;;;;;56.83;4.18;;;;;;;;;;5053053;28;20206;-71
2023/12/01 13:47:34;;;;;;;58.17;3.78;;;;;;;;;;5053547;28;20213;-70
2023/12/01 13:50:01;;;;;;;56.88;4.28;;;;;;;;;;5053188;28;20217;-70
2023/12/01 13:52:28;;;;;;;55.95;2.90;;;;;;;;;;5053045;28;20226;-70
2023/12/01 13:54:55;;;;;;;56.50;3.13;;;;;;;;;;5053173;28;20553;-70
2023/12/01 13:57:22;;;;;;;55.90;2.90;;;;;;;;;;5053041;28;20207;-70
2023/12/01 13:59:50;;;;;;;55.80;3.03;;;;;;;;;;5052917;28;20671;-70
2023/12/01 14:02:19;;;;;;;55.75;3.03;;;;;;;;;;5053111;28;20600;-71
2023/12/01 14:04:46;;;;;;;61.80;3.70;;;;;;;;;;5052574;28;20301;-71
2023/12/01 14:07:14;;;;;;;55.90;3.10;;;;;;;;;;5053051;28;20207;-71
2023/12/01 14:09:41;;;;;;;55.75;2.70;;;;;;;;;;5052754;28;20214;-70
2023/12/01 14:12:09;;;;;;;56.20;2.90;;;;;;;;;;5052489;28;20246;-71
2023/12/01 14:14:37;;;;;;;55.70;2.40;;;;;;;;;;5052809;28;20213;-71
2023/12/01 14:17:04;;;;;;;55.97;3.42;;;;;;;;;;5052958;28;20571;-70
2023/12/01 14:19:32;;;;;;;55.85;2.78;;;;;;;;;;5052906;28;20228;-72
2023/12/01 14:21:59;;;;;;;56.13;3.90;;;;;;;;;;5052305;28;20228;-71
2023/12/01 14:24:27;;;;;;;55.60;2.60;;;;;;;;;;5052549;28;20594;-72
2023/12/01 14:26:54;;;;;;;56.40;3.63;;;;;;;;;;5052533;28;20301;-72
2023/12/01 14:29:21;;;;;;;58.65;3.60;;;;;;;;;;5052609;28;20207;-73
2023/12/01 14:31:48;;;;;;;57.25;4.95;;;;;;;;;;5052258;28;20242;-72
2023/12/01 14:34:15;;;;;;;56.47;4.32;;;;;;;;;;5052294;28;20553;-72
2023/12/01 14:36:43;;;;;;;56.47;3.33;;;;;;;;;;5052163;28;20214;-71